Alton, New York
Current Conditions -  °F | °C
As of 6:54 PM on Wednesday 22 Oct 2014 (Local Time) from KFZY Reporting Station
Overcast Overcast  
Wind Chill: 42°   Ceiling: 1900
Heat Index: 48°   Visibility: 10mi
Dew Point: 41°   Wind: 14mph
Humidity: 77%   Direction: 10°N
Pressure: 30.14"   Gusts: 18mph
Location:  43.21°N, 76.98°W
Report Text: KFZY 222254Z AUTO 01012G16KT 10SM BKN019 OVC090 09/05 A3014 RMK AO2 SLP209 T00890050
Loading
Personal Weather Stations






























Interactive Weather Map
Tropical Storm Tracking
New forecast layout! Learn more

10-Day Weather Forecast

Advertisements
Track Severe Weather on mobile